This is the latest recevied weather packets stored in our database for station/object EA5GTE-12. If no packets are shown the sender has not sent any weather packets the latest 10 day(s).
| Time | Temp. | Humidity | Pressure | Rain* | Wind** | Luminosity | Snow |
|---|---|---|---|---|---|---|---|
| 1788277120 | 33.89° C | 40% | 940.4 hPa | - | - | - | - |
| 1788276220 | 33.89° C | 40% | 940.5 hPa | - | - | - | - |
| 1788275320 | 32.78° C | 44% | 940.7 hPa | - | - | - | - |
| 1788274419 | 33.33° C | 43% | 941 hPa | - | - | - | - |
| 1788273520 | 32.78° C | 46% | 941.1 hPa | - | - | - | - |
| 1788272620 | 32.22° C | 48% | 941.2 hPa | - | - | - | - |
| 1788271719 | 32.22° C | 48% | 941.5 hPa | - | - | - | - |
| 1788270819 | 32.22° C | 50% | 941.9 hPa | - | - | - | - |
| 1788269919 | 31.11° C | 55% | 942 hPa | - | - | - | - |
| 1788269019 | 30° C | 58% | 942.3 hPa | - | - | - | - |
| 1788268118 | 30.56° C | 57% | 942.7 hPa | - | - | - | - |
| 1788267218 | 29.44° C | 62% | 942.6 hPa | - | - | - | - |
| 1788266318 | 31.11° C | 56% | 942.7 hPa | - | - | - | - |
| 1788265418 | 30.56° C | 61% | 942.4 hPa | - | - | - | - |
| 1788264518 | 25.56° C | 95% | 942 hPa | - | - | - | - |
| 1788263618 | 24.44° C | 100% | 943.6 hPa | - | - | - | - |
| 1788262718 | 25° C | 93% | 943.4 hPa | - | - | - | - |
| 1788261818 | 27.22° C | 79% | 943.1 hPa | - | - | - | - |
| 1788260918 | 27.22° C | 79% | 943.4 hPa | - | - | - | - |
| 1788260017 | 26.67° C | 85% | 943.5 hPa | - | - | - | - |
| 1788259116 | 27.22° C | 79% | 943.6 hPa | - | - | - | - |
| 1788258215 | 26.11° C | 91% | 943.6 hPa | - | - | - | - |
| 1788257319 | 26.11° C | 90% | 943.8 hPa | - | - | - | - |
| 1788256419 | 26.11° C | 93% | 943.7 hPa | - | - | - | - |
| 1788255518 | 25.56° C | 98% | 943.8 hPa | - | - | - | - |
* Rain since midnight (hover to see other rain measurements)
** Current wind speed in m/s (hover to see current wind gust speed)